Time;durP1;ratioP1;P1;durP2;ratioP2;P2;SDS_P1;SDS_P2;PMS_P1;PMS_P2;Temp;Humidity;BMP_temperature;BMP_pressure;BME280_temperature;BME280_humidity;BME280_pressure;Samples;Min_cycle;Max_cycle;Signal;HPM_P1;HPM_P2
2023/03/02 00:01:57;;;;;;;5.40;2.73;;;;;;;1.83;55.68;102419.91;6173500;22;96502;-49
2023/03/02 00:04:49;;;;;;;3.00;2.10;;;;;;;1.86;55.42;102408.28;6174095;22;97147;-49
2023/03/02 00:07:33;;;;;;;2.37;1.97;;;;;;;1.87;55.74;102412.53;6174508;22;96850;-49
2023/03/02 00:09:59;;;;;;;2.90;2.60;;;;;;;1.85;55.04;102404.03;6174765;22;96638;-49
2023/03/02 00:12:31;;;;;;;7.80;2.40;;;;;;;1.89;55.02;102407.50;6173309;22;96862;-49
2023/03/02 00:14:56;;;;;;;2.20;2.00;;;;;;;1.91;55.08;102403.25;6174425;22;96587;-50
2023/03/02 00:17:26;;;;;;;2.33;1.90;;;;;;;1.93;54.92;102405.56;6173868;22;96881;-49
2023/03/02 00:20:10;;;;;;;2.50;2.30;;;;;;;1.91;55.04;102408.66;6174265;22;96948;-49
2023/03/02 00:22:42;;;;;;;4.93;2.40;;;;;;;1.90;55.14;102417.22;6173593;22;97069;-49
2023/03/02 00:25:09;;;;;;;4.37;2.63;;;;;;;1.92;54.85;102412.91;6174441;22;97151;-49
2023/03/02 00:27:34;;;;;;;2.50;1.87;;;;;;;1.95;54.84;102414.06;6174247;22;96607;-49
2023/03/02 00:29:59;;;;;;;3.57;2.83;;;;;;;1.96;55.08;102411.00;6174920;22;97081;-49
2023/03/02 00:32:25;;;;;;;3.50;2.53;;;;;;;1.96;54.83;102407.50;6173883;22;96816;-49
2023/03/02 00:34:50;;;;;;;3.40;2.40;;;;;;;1.91;54.94;102407.88;6174316;22;97119;-49
2023/03/02 00:37:16;;;;;;;4.57;2.93;;;;;;;1.87;55.08;102415.25;6174236;22;96565;-49
2023/03/02 00:39:41;;;;;;;5.03;3.10;;;;;;;1.81;55.17;102416.81;6174367;22;96559;-50
2023/03/02 00:42:07;;;;;;;4.57;3.47;;;;;;;1.76;55.20;102414.50;6173259;22;97358;-49
2023/03/02 00:44:32;;;;;;;4.80;2.80;;;;;;;1.77;55.37;102421.47;6174161;22;96776;-49
2023/03/02 00:46:57;;;;;;;4.57;3.07;;;;;;;1.77;55.95;102413.34;6174462;22;97035;-49
2023/03/02 00:49:23;;;;;;;5.50;3.97;;;;;;;1.75;56.17;102411.00;6173650;22;96950;-49
2023/03/02 00:51:48;;;;;;;5.60;3.73;;;;;;;1.77;56.22;102405.94;6173919;22;97771;-49
2023/03/02 00:54:14;;;;;;;5.70;3.83;;;;;;;1.79;56.14;102408.28;6174176;22;96598;-49
2023/03/02 00:56:39;;;;;;;6.17;4.40;;;;;;;1.81;56.57;102405.97;6173901;22;96908;-49
2023/03/02 00:59:09;;;;;;;5.40;3.80;;;;;;;1.83;56.34;102406.34;6174800;22;96800;-49
2023/03/02 01:01:36;;;;;;;9.03;5.17;;;;;;;1.90;56.18;102409.81;6173738;22;97760;-49
2023/03/02 01:04:02;;;;;;;6.57;4.70;;;;;;;1.96;56.34;102400.13;6173738;22;97119;-49
2023/03/02 01:06:27;;;;;;;11.57;4.90;;;;;;;2.05;56.49;102410.59;6173803;22;96518;-49
2023/03/02 01:08:52;;;;;;;13.03;5.70;;;;;;;2.09;56.58;102411.34;6173628;22;97560;-49
2023/03/02 01:11:20;;;;;;;8.57;5.27;;;;;;;2.17;56.57;102413.66;6173436;22;97102;-49
2023/03/02 01:13:47;;;;;;;10.33;6.07;;;;;;;2.26;56.75;102411.31;6173799;22;97711;-49
2023/03/02 01:16:13;;;;;;;9.17;5.60;;;;;;;2.39;56.45;102413.59;6174433;22;97002;-49
2023/03/02 01:18:38;;;;;;;12.57;6.30;;;;;;;2.49;56.62;102412.81;6173708;22;96705;-49
2023/03/02 01:21:07;;;;;;;10.27;5.70;;;;;;;2.57;56.68;102419.75;6173892;22;97653;-50
2023/03/02 01:23:33;;;;;;;9.53;5.63;;;;;;;2.59;56.78;102423.63;6174132;22;97243;-49
2023/03/02 01:25:58;;;;;;;15.10;6.03;;;;;;;2.62;56.61;102417.38;6176011;22;96900;-49
2023/03/02 01:28:24;;;;;;;13.13;7.83;;;;;;;2.60;56.77;102410.81;6175376;22;97252;-49
2023/03/02 01:30:49;;;;;;;9.93;6.23;;;;;;;2.57;57.04;102398.03;6174643;22;97219;-49
2023/03/02 01:33:14;;;;;;;22.57;7.20;;;;;;;2.56;57.52;102399.19;6174526;22;105123;-49
2023/03/02 01:35:40;;;;;;;12.97;7.43;;;;;;;2.56;57.30;102402.66;6174897;22;96923;-49
2023/03/02 01:38:05;;;;;;;10.83;6.33;;;;;;;2.61;57.61;102393.34;6175554;22;97431;-50
2023/03/02 01:43:52;;;;;;;9.27;5.47;;;;;;;2.69;57.63;102392.13;6174848;22;96837;-50
2023/03/02 01:46:22;;;;;;;11.17;6.67;;;;;;;2.70;58.15;102389.03;6175310;22;96849;-49
2023/03/02 01:49:00;;;;;;;11.20;6.67;;;;;;;2.73;57.88;102384.75;6175658;22;96779;-49
2023/03/02 01:51:29;;;;;;;11.23;6.93;;;;;;;2.76;58.07;102392.09;6174666;22;97091;-49
2023/03/02 01:54:02;;;;;;;13.10;5.90;;;;;;;2.77;58.24;102386.28;6174983;22;96638;-49
2023/03/02 01:56:36;;;;;;;11.33;6.90;;;;;;;2.76;58.47;102386.66;6175050;22;96935;-49
2023/03/02 01:59:06;;;;;;;11.80;7.10;;;;;;;2.77;58.13;102380.09;6175502;22;96625;-49
2023/03/02 02:01:35;;;;;;;10.50;6.40;;;;;;;2.80;57.96;102377.34;6174993;22;97122;-49
2023/03/02 02:04:01;;;;;;;13.20;6.87;;;;;;;2.81;59.49;102381.63;6174866;22;96982;-49
2023/03/02 02:06:39;;;;;;;11.57;6.57;;;;;;;2.83;59.24;102382.00;6175581;22;96933;-49
2023/03/02 02:09:08;;;;;;;15.40;6.47;;;;;;;2.83;58.23;102373.06;6175157;22;96701;-49
2023/03/02 02:11:33;;;;;;;10.00;7.17;;;;;;;2.87;58.18;102374.59;6175045;22;97085;-49
2023/03/02 02:14:00;;;;;;;10.47;6.73;;;;;;;2.88;58.18;102373.41;6175646;22;97229;-49
2023/03/02 02:16:27;;;;;;;10.27;6.43;;;;;;;2.90;58.23;102362.94;6175455;22;96978;-49
2023/03/02 02:18:54;;;;;;;14.17;6.07;;;;;;;2.95;58.07;102361.72;6175379;22;97796;-49
2023/03/02 02:21:20;;;;;;;12.17;6.00;;;;;;;3.02;58.13;102367.88;6174143;22;96544;-49
2023/03/02 02:24:09;;;;;;;8.37;5.87;;;;;;;3.02;59.59;102367.88;6174790;22;97051;-50
2023/03/02 02:26:40;;;;;;;10.43;5.00;;;;;;;3.04;57.88;102367.47;6175371;22;96854;-49
2023/03/02 02:29:23;;;;;;;11.00;6.03;;;;;;;3.01;59.63;102360.88;6148254;22;97088;-49
2023/03/02 02:31:55;;;;;;;9.20;5.67;;;;;;;2.99;58.18;102359.75;6174537;22;96977;-49
2023/03/02 02:34:29;;;;;;;7.67;5.40;;;;;;;3.04;58.12;102357.38;6174894;22;97303;-49
2023/03/02 02:37:02;;;;;;;6.60;4.90;;;;;;;3.13;58.06;102364.31;6175175;22;97133;-49
2023/03/02 02:39:31;;;;;;;9.37;5.70;;;;;;;3.16;57.91;102361.59;6176204;22;96531;-49
2023/03/02 02:42:02;;;;;;;10.13;6.30;;;;;;;3.13;57.87;102358.88;6174690;22;96881;-49
2023/03/02 02:44:28;;;;;;;9.47;6.27;;;;;;;3.10;57.83;102356.97;6174598;22;97326;-49
2023/03/02 02:46:53;;;;;;;10.47;5.60;;;;;;;3.14;58.16;102355.78;6174271;22;96890;-49
2023/03/02 02:49:30;;;;;;;8.10;5.00;;;;;;;3.16;58.29;102363.53;6174921;22;96861;-49
2023/03/02 02:51:56;;;;;;;8.73;5.63;;;;;;;3.12;58.27;102360.84;6174567;22;97054;-49
2023/03/02 02:54:22;;;;;;;10.60;5.90;;;;;;;3.07;58.64;102355.03;6175078;22;97211;-49
2023/03/02 02:56:49;;;;;;;7.97;5.53;;;;;;;3.11;58.34;102359.28;6175452;22;96909;-50
2023/03/02 02:59:32;;;;;;;11.57;5.50;;;;;;;3.20;59.16;102356.13;6175143;22;97301;-50
2023/03/02 03:01:58;;;;;;;7.17;4.50;;;;;;;3.21;58.22;102357.69;6174484;22;97892;-50
2023/03/02 03:04:27;;;;;;;7.73;5.50;;;;;;;3.23;58.25;102361.53;6175132;22;97667;-49
2023/03/02 03:06:53;;;;;;;10.57;6.57;;;;;;;3.22;58.14;102372.81;6174499;22;96833;-49
2023/03/02 03:09:19;;;;;;;9.03;5.50;;;;;;;3.23;58.11;102363.47;6175130;22;97001;-49
2023/03/02 03:11:59;;;;;;;7.87;5.50;;;;;;;3.28;58.54;102366.53;6173911;22;97031;-49
2023/03/02 03:14:29;;;;;;;8.17;5.60;;;;;;;3.31;58.14;102371.19;6174459;22;97225;-49
2023/03/02 03:16:54;;;;;;;10.03;6.03;;;;;;;3.33;58.17;102389.81;6174935;22;96887;-49
2023/03/02 03:19:22;;;;;;;12.57;7.30;;;;;;;3.35;58.15;102371.16;6174794;22;96625;-49
2023/03/02 03:21:51;;;;;;;9.30;5.50;;;;;;;3.35;58.20;102376.59;6174011;22;97402;-49
2023/03/02 03:24:17;;;;;;;12.30;5.90;;;;;;;3.34;58.12;102369.63;6174840;22;97150;-49
2023/03/02 03:26:43;;;;;;;7.23;5.73;;;;;;;3.37;58.27;102366.88;6174986;22;97014;-49
2023/03/02 03:29:09;;;;;;;10.00;6.70;;;;;;;3.39;58.30;102394.44;6175103;22;96737;-49
2023/03/02 03:31:35;;;;;;;8.50;5.93;;;;;;;3.40;58.09;102376.94;6174573;22;96733;-50
2023/03/02 03:34:00;;;;;;;9.77;6.23;;;;;;;3.36;58.68;102372.72;6174885;22;97622;-49
2023/03/02 03:36:28;;;;;;;9.10;5.77;;;;;;;3.34;58.18;102370.38;6174197;22;97010;-49
2023/03/02 03:38:54;;;;;;;9.10;5.77;;;;;;;3.33;58.65;102363.41;6174692;22;97130;-49
2023/03/02 03:41:19;;;;;;;7.00;4.83;;;;;;;3.31;58.25;102368.47;6174862;22;96474;-49
2023/03/02 03:43:44;;;;;;;7.53;5.30;;;;;;;3.27;58.63;102354.13;6174692;22;97666;-49
2023/03/02 03:46:10;;;;;;;7.33;5.50;;;;;;;3.23;58.89;102360.75;6174856;22;97264;-49
2023/03/02 03:48:35;;;;;;;8.80;5.70;;;;;;;3.22;59.26;102361.91;6174009;22;97076;-49
2023/03/02 03:51:01;;;;;;;7.03;5.20;;;;;;;3.21;59.09;102361.16;6174530;22;96760;-49
2023/03/02 03:53:27;;;;;;;8.07;5.70;;;;;;;3.24;58.83;102362.28;6175349;22;99658;-49
2023/03/02 03:55:52;;;;;;;7.30;5.30;;;;;;;3.26;58.79;102368.88;6175064;22;96770;-49
2023/03/02 03:58:18;;;;;;;8.73;5.30;;;;;;;3.29;58.94;102362.66;6174803;22;96718;-49
2023/03/02 04:00:46;;;;;;;9.37;6.40;;;;;;;3.37;58.98;102364.13;6173217;22;97266;-49
2023/03/02 04:03:13;;;;;;;8.70;5.67;;;;;;;3.41;58.88;102372.25;6174383;22;98187;-49
2023/03/02 04:05:38;;;;;;;12.57;6.20;;;;;;;3.42;58.94;102369.16;6174904;22;96526;-49
2023/03/02 04:08:05;;;;;;;7.50;5.57;;;;;;;3.48;58.59;102369.50;6174120;22;98068;-49
2023/03/02 04:10:30;;;;;;;11.13;6.17;;;;;;;3.45;59.04;102373.78;6174656;22;96596;-49
2023/03/02 04:12:55;;;;;;;8.87;5.80;;;;;;;3.39;59.34;102377.34;6174353;22;97106;-49
2023/03/02 04:15:21;;;;;;;8.87;5.87;;;;;;;3.38;58.96;102373.88;6174689;22;96639;-49
2023/03/02 04:17:46;;;;;;;11.13;6.83;;;;;;;3.40;59.12;102381.63;6175114;22;96734;-49
2023/03/02 04:20:16;;;;;;;9.73;5.97;;;;;;;3.45;58.83;102381.19;6174599;22;97423;-49
2023/03/02 04:22:45;;;;;;;8.17;5.23;;;;;;;3.47;59.11;102382.31;6174503;22;98158;-49
2023/03/02 04:25:12;;;;;;;10.53;6.47;;;;;;;3.44;58.64;102385.06;6174216;22;96750;-49
2023/03/02 04:27:38;;;;;;;9.53;6.43;;;;;;;3.45;58.91;102381.19;6173063;22;97171;-49
2023/03/02 04:30:05;;;;;;;8.67;6.00;;;;;;;3.47;58.89;102379.59;6172882;22;96659;-49
2023/03/02 04:32:30;;;;;;;8.33;5.30;;;;;;;3.52;58.96;102375.69;6173860;22;97214;-49
2023/03/02 04:34:56;;;;;;;10.17;6.23;;;;;;;3.59;58.88;102375.63;6173779;22;96934;-50
2023/03/02 04:37:21;;;;;;;8.80;5.43;;;;;;;3.61;58.83;102373.28;6171130;22;96942;-50
2023/03/02 04:39:50;;;;;;;9.17;5.27;;;;;;;3.68;58.78;102379.44;6172915;22;97287;-50
2023/03/02 04:42:15;;;;;;;8.10;5.33;;;;;;;3.72;58.83;102382.13;6174413;22;97114;-50
2023/03/02 04:44:41;;;;;;;8.87;5.70;;;;;;;3.74;58.71;102374.31;6173991;22;96986;-49
2023/03/02 04:47:06;;;;;;;10.40;6.60;;;;;;;3.77;58.59;102374.31;6174308;22;97016;-49
2023/03/02 04:49:31;;;;;;;8.03;5.57;;;;;;;3.74;58.62;102366.94;6173890;22;97690;-49
2023/03/02 04:51:57;;;;;;;7.23;5.70;;;;;;;3.71;58.83;102359.56;6146814;22;98435;-49
2023/03/02 04:54:24;;;;;;;8.80;5.90;;;;;;;3.69;58.60;102363.88;6173119;22;96932;-49
2023/03/02 04:56:50;;;;;;;10.80;5.43;;;;;;;3.67;58.70;102361.53;6174192;22;96950;-49
2023/03/02 04:59:18;;;;;;;9.27;5.10;;;;;;;3.66;58.78;102357.28;6174738;22;96868;-49
2023/03/02 05:01:45;;;;;;;8.07;5.00;;;;;;;3.66;58.71;102356.50;6174451;22;97487;-49
2023/03/02 05:04:11;;;;;;;11.70;5.50;;;;;;;3.59;59.12;102353.84;6175224;22;96979;-50
2023/03/02 05:06:36;;;;;;;7.10;5.40;;;;;;;3.54;59.09;102348.84;6175891;22;97040;-49
2023/03/02 05:09:03;;;;;;;8.63;5.70;;;;;;;3.52;59.14;102351.19;6174447;22;97744;-49
2023/03/02 05:11:30;;;;;;;8.80;5.63;;;;;;;3.52;59.10;102354.69;6172749;22;97850;-49
2023/03/02 05:14:01;;;;;;;8.57;5.93;;;;;;;3.48;59.40;102355.88;6174213;22;96603;-49
2023/03/02 05:16:30;;;;;;;9.50;6.03;;;;;;;3.42;59.58;102357.50;6174959;22;97147;-49
2023/03/02 05:18:55;;;;;;;10.73;6.20;;;;;;;3.39;59.53;102355.56;6174495;22;97289;-50
2023/03/02 05:21:21;;;;;;;7.07;5.80;;;;;;;3.38;59.51;102359.47;6174772;22;97207;-49
2023/03/02 05:23:47;;;;;;;11.50;6.03;;;;;;;3.40;59.33;102362.56;6174688;22;97094;-49
2023/03/02 05:26:12;;;;;;;7.70;5.20;;;;;;;3.36;59.72;102350.94;6176123;22;97219;-50
2023/03/02 05:28:39;;;;;;;10.47;6.30;;;;;;;3.35;59.70;102344.72;6175227;22;97569;-50
2023/03/02 05:31:04;;;;;;;8.80;5.47;;;;;;;3.33;59.85;102359.91;6175087;22;96948;-50
2023/03/02 05:33:29;;;;;;;9.60;5.80;;;;;;;3.37;59.75;102358.69;6175519;22;96731;-50
2023/03/02 05:35:55;;;;;;;6.87;4.87;;;;;;;3.40;59.66;102362.56;6175644;22;96704;-50
2023/03/02 05:38:20;;;;;;;8.37;5.87;;;;;;;3.46;59.50;102355.50;6173624;22;97445;-49
2023/03/02 05:40:47;;;;;;;7.90;5.23;;;;;;;3.46;59.56;102363.69;6175381;22;97242;-49
2023/03/02 05:43:16;;;;;;;13.90;5.80;;;;;;;3.49;59.49;102362.88;6175734;22;97061;-50
2023/03/02 05:45:41;;;;;;;11.10;5.60;;;;;;;3.41;59.57;102366.81;6175837;22;96884;-50
2023/03/02 05:48:07;;;;;;;9.10;5.23;;;;;;;3.39;59.79;102363.72;6174559;22;97703;-50
2023/03/02 05:50:32;;;;;;;8.50;5.63;;;;;;;3.37;59.81;102369.59;6174882;22;96720;-50
2023/03/02 05:52:59;;;;;;;10.60;6.73;;;;;;;3.35;59.86;102366.50;6174755;22;96874;-50
2023/03/02 05:55:24;;;;;;;7.00;5.50;;;;;;;3.36;59.94;102368.06;6175807;22;96964;-49
2023/03/02 05:57:50;;;;;;;7.23;5.07;;;;;;;3.43;59.99;102373.41;6147565;22;98762;-49
2023/03/02 06:00:17;;;;;;;10.83;5.90;;;;;;;3.48;59.85;102369.50;6175092;22;97025;-50
2023/03/02 06:02:42;;;;;;;14.97;5.93;;;;;;;3.47;59.95;102373.41;6147293;22;97286;-50
2023/03/02 06:05:11;;;;;;;12.97;6.33;;;;;;;3.38;59.97;102371.16;6174889;22;96694;-50
2023/03/02 06:07:36;;;;;;;8.40;5.00;;;;;;;3.38;60.22;102375.81;6175075;22;97026;-51
2023/03/02 06:10:06;;;;;;;11.77;5.10;;;;;;;3.36;59.75;102378.16;6174330;22;96931;-50
2023/03/02 06:12:31;;;;;;;7.60;4.83;;;;;;;3.33;60.02;102384.38;6175363;22;97182;-50
2023/03/02 06:14:58;;;;;;;7.90;5.17;;;;;;;3.33;59.82;102389.81;6174961;22;96714;-50
2023/03/02 06:17:24;;;;;;;12.00;5.03;;;;;;;3.28;60.25;102392.97;6174209;22;97381;-50
2023/03/02 06:19:49;;;;;;;6.97;5.03;;;;;;;3.25;60.45;102391.84;6174674;22;97019;-50
2023/03/02 06:22:14;;;;;;;7.90;5.10;;;;;;;3.31;60.08;102389.44;6175168;22;97210;-49
2023/03/02 06:24:40;;;;;;;9.17;4.30;;;;;;;3.34;60.11;102386.69;6174906;22;96744;-51
2023/03/02 06:27:05;;;;;;;6.50;4.90;;;;;;;3.41;59.96;102392.09;6173210;22;108915;-49
2023/03/02 06:29:30;;;;;;;5.47;4.00;;;;;;;3.43;59.84;102394.44;6174222;22;110367;-49
2023/03/02 06:31:55;;;;;;;8.20;5.20;;;;;;;3.36;59.82;102389.03;6174367;22;97297;-50
2023/03/02 06:34:21;;;;;;;8.83;4.57;;;;;;;3.37;60.25;102387.84;6174763;22;97085;-50
2023/03/02 06:36:46;;;;;;;10.83;5.30;;;;;;;3.35;59.88;102387.47;6173980;22;97288;-50
2023/03/02 06:39:14;;;;;;;10.27;5.40;;;;;;;3.27;60.30;102386.00;6174828;22;97451;-50
2023/03/02 06:41:49;;;;;;;10.40;4.70;;;;;;;3.22;60.40;102387.19;6174715;22;96534;-49
2023/03/02 06:44:16;;;;;;;6.60;4.47;;;;;;;3.22;60.40;102383.69;6175691;22;97215;-49
2023/03/02 06:46:42;;;;;;;7.10;4.83;;;;;;;3.23;60.31;102385.25;6174304;22;97062;-51
2023/03/02 06:49:08;;;;;;;6.83;4.80;;;;;;;3.20;60.52;102389.53;6174266;22;97055;-49
2023/03/02 06:51:34;;;;;;;7.90;4.97;;;;;;;3.23;60.27;102385.25;6174211;22;97054;-50
2023/03/02 06:53:59;;;;;;;9.00;5.20;;;;;;;3.20;60.80;102388.75;6175084;22;96939;-50
2023/03/02 06:56:25;;;;;;;5.43;4.10;;;;;;;3.23;60.64;102383.31;6174301;22;97329;-50
2023/03/02 06:58:50;;;;;;;8.17;4.40;;;;;;;3.24;60.47;102389.50;6174378;22;96830;-50
2023/03/02 07:01:16;;;;;;;12.33;4.43;;;;;;;3.30;60.57;102385.19;6174605;22;96729;-50
2023/03/02 07:03:41;;;;;;;9.00;4.57;;;;;;;3.34;60.34;102383.97;6174561;22;96795;-50
2023/03/02 07:06:07;;;;;;;8.93;4.70;;;;;;;3.34;60.32;102385.94;6174287;22;96923;-50
2023/03/02 07:08:33;;;;;;;5.67;4.00;;;;;;;3.37;60.15;102385.13;6175067;22;97071;-50
2023/03/02 07:10:58;;;;;;;6.23;4.27;;;;;;;3.34;60.51;102389.41;6174233;22;96961;-50
2023/03/02 07:13:23;;;;;;;6.63;4.13;;;;;;;3.35;60.46;102379.31;6174969;22;97130;-49
2023/03/02 07:15:49;;;;;;;8.97;4.90;;;;;;;3.36;60.49;102378.16;6173531;22;96952;-49
2023/03/02 07:18:14;;;;;;;4.90;3.97;;;;;;;3.37;60.28;102377.75;6174021;22;97118;-50
2023/03/02 07:20:40;;;;;;;8.27;4.93;;;;;;;3.38;60.58;102365.69;6174827;22;96940;-50
2023/03/02 07:23:05;;;;;;;7.70;4.90;;;;;;;3.51;60.47;102379.59;6174325;22;96961;-50
2023/03/02 07:25:31;;;;;;;7.10;4.50;;;;;;;3.57;60.43;102375.25;6175072;22;97247;-49
2023/03/02 07:27:57;;;;;;;7.10;4.83;;;;;;;3.55;60.34;102369.44;6173918;22;97058;-50
2023/03/02 07:30:22;;;;;;;6.60;4.23;;;;;;;3.56;59.83;102374.47;6174708;22;96597;-50
2023/03/02 07:32:48;;;;;;;6.37;4.30;;;;;;;3.63;60.14;102366.25;6175385;22;96734;-49
2023/03/02 07:35:13;;;;;;;6.73;4.93;;;;;;;3.58;60.51;102363.22;6174448;22;96631;-51
2023/03/02 07:37:39;;;;;;;6.37;4.40;;;;;;;3.53;60.42;102363.63;6174183;22;97065;-50
2023/03/02 07:40:05;;;;;;;9.57;5.13;;;;;;;3.58;60.48;102365.94;6174288;22;96703;-50
2023/03/02 07:42:31;;;;;;;6.77;4.60;;;;;;;3.60;60.38;102358.13;6174817;22;96887;-50
2023/03/02 07:44:57;;;;;;;6.30;4.43;;;;;;;3.67;60.51;102358.03;6174485;22;96912;-49
2023/03/02 07:47:22;;;;;;;8.10;4.57;;;;;;;3.74;60.48;102355.25;6147075;22;97480;-49
2023/03/02 07:49:48;;;;;;;8.70;5.80;;;;;;;3.74;60.30;102372.38;6174245;22;97002;-50
2023/03/02 07:52:14;;;;;;;6.20;4.60;;;;;;;3.71;60.69;102366.97;6174551;22;96551;-49
2023/03/02 07:54:39;;;;;;;8.53;5.23;;;;;;;3.69;60.24;102364.63;6174686;22;97028;-50
2023/03/02 07:57:04;;;;;;;6.40;4.23;;;;;;;3.72;60.68;102373.94;6174398;22;97040;-50
2023/03/02 07:59:30;;;;;;;8.33;4.90;;;;;;;3.76;60.48;102380.91;6175060;22;97025;-49
2023/03/02 08:01:56;;;;;;;10.13;5.50;;;;;;;3.78;60.58;102377.78;6174377;22;96972;-50
2023/03/02 08:04:21;;;;;;;6.73;4.50;;;;;;;3.77;60.39;102377.03;6174144;22;97149;-50
2023/03/02 08:06:47;;;;;;;10.10;4.73;;;;;;;3.71;60.67;102384.06;6174023;22;97656;-50
2023/03/02 08:09:12;;;;;;;7.23;4.93;;;;;;;3.70;60.47;102379.81;6174495;22;97329;-49
2023/03/02 08:11:37;;;;;;;6.30;4.37;;;;;;;3.66;60.57;102378.28;6174284;22;96747;-50
2023/03/02 08:14:03;;;;;;;8.70;5.33;;;;;;;3.69;60.59;102374.78;6173852;22;97481;-50
2023/03/02 08:16:29;;;;;;;6.87;4.60;;;;;;;3.75;60.45;102381.31;6173859;22;102191;-50
2023/03/02 08:18:55;;;;;;;9.87;5.50;;;;;;;3.78;60.90;102375.84;6173763;22;97034;-50
2023/03/02 08:21:23;;;;;;;8.20;4.53;;;;;;;3.78;60.57;102384.00;6174411;22;96735;-50
2023/03/02 08:23:49;;;;;;;6.13;4.67;;;;;;;3.90;60.49;102387.41;6173804;22;96955;-50
2023/03/02 08:26:15;;;;;;;4.90;3.90;;;;;;;3.98;60.46;102386.91;6173964;22;97116;-50
2023/03/02 08:28:41;;;;;;;6.70;4.90;;;;;;;4.00;60.34;102386.53;6173575;22;97092;-51
2023/03/02 08:31:07;;;;;;;7.10;4.90;;;;;;;4.01;60.41;102375.22;6174348;22;97046;-49
2023/03/02 08:33:34;;;;;;;5.70;3.93;;;;;;;4.06;60.50;102377.53;6174460;22;96730;-50
2023/03/02 08:36:10;;;;;;;6.20;4.30;;;;;;;4.07;60.48;102381.78;6175349;22;97059;-49
2023/03/02 08:38:35;;;;;;;7.43;4.93;;;;;;;3.95;60.28;102368.69;6175638;22;97307;-50
2023/03/02 08:41:05;;;;;;;6.30;4.30;;;;;;;3.89;60.65;102383.16;6175725;22;96806;-50
2023/03/02 08:43:30;;;;;;;5.77;4.70;;;;;;;3.94;60.72;102375.28;6175113;22;96603;-50
2023/03/02 08:45:58;;;;;;;6.90;4.40;;;;;;;4.03;60.74;102377.53;6175934;22;98035;-50
2023/03/02 08:48:25;;;;;;;8.83;4.90;;;;;;;4.10;60.56;102375.53;6148127;22;96921;-50
2023/03/02 08:51:04;;;;;;;6.00;4.27;;;;;;;4.17;60.81;102374.69;6175438;22;96827;-49
2023/03/02 08:53:31;;;;;;;6.23;4.30;;;;;;;4.26;60.43;102377.69;6174438;22;97000;-50
2023/03/02 08:55:57;;;;;;;7.03;4.80;;;;;;;4.21;60.34;102368.03;6175013;22;97190;-49
2023/03/02 08:58:22;;;;;;;12.43;5.23;;;;;;;4.14;60.47;102367.31;6175749;22;96694;-49
2023/03/02 09:00:48;;;;;;;15.17;5.60;;;;;;;4.09;60.79;102376.69;6175042;22;97445;-50
2023/03/02 09:03:14;;;;;;;8.63;5.33;;;;;;;4.19;60.62;102370.38;6174772;22;96646;-50
2023/03/02 09:05:39;;;;;;;8.10;5.50;;;;;;;4.25;60.08;102366.03;6175078;22;97063;-49
2023/03/02 09:08:06;;;;;;;7.27;4.33;;;;;;;4.28;60.30;102370.63;6175346;22;97039;-49
2023/03/02 09:10:31;;;;;;;7.90;5.03;;;;;;;4.26;60.40;102359.38;6175894;22;96782;-51
2023/03/02 09:12:56;;;;;;;6.20;4.70;;;;;;;4.30;60.79;102359.34;6175160;22;98931;-50
2023/03/02 09:15:22;;;;;;;8.30;5.30;;;;;;;4.27;60.60;102360.94;6172764;22;99692;-49
2023/03/02 09:17:47;;;;;;;5.83;4.57;;;;;;;4.27;60.85;102363.66;6174674;22;97020;-49
2023/03/02 09:20:13;;;;;;;8.90;5.33;;;;;;;4.24;60.95;102360.97;6175376;22;97035;-50
2023/03/02 09:22:39;;;;;;;9.47;5.40;;;;;;;4.25;60.59;102363.28;6174701;22;96631;-49
2023/03/02 09:25:05;;;;;;;7.20;5.33;;;;;;;4.31;60.71;102363.59;6175244;22;97300;-50
2023/03/02 09:27:31;;;;;;;8.90;5.23;;;;;;;4.39;60.69;102360.38;6175206;22;96659;-50
2023/03/02 09:29:56;;;;;;;6.17;4.60;;;;;;;4.43;60.34;102363.09;6175420;22;97317;-50
2023/03/02 09:32:22;;;;;;;5.23;4.37;;;;;;;4.35;60.71;102356.94;6174530;22;97317;-50
2023/03/02 09:34:47;;;;;;;8.30;5.50;;;;;;;4.32;61.02;102357.78;6175256;22;97161;-50
2023/03/02 09:37:13;;;;;;;9.20;5.20;;;;;;;4.39;61.08;102360.38;6174979;22;97703;-50
2023/03/02 09:39:38;;;;;;;6.60;4.60;;;;;;;4.47;60.93;102361.88;6175312;22;96739;-49
2023/03/02 09:42:17;;;;;;;8.80;5.93;;;;;;;4.53;60.71;102362.97;6173897;22;97222;-49
2023/03/02 09:45:11;;;;;;;8.20;5.20;;;;;;;4.55;61.22;102368.78;6174871;22;97850;-49
2023/03/02 09:47:39;;;;;;;7.83;5.07;;;;;;;4.59;60.65;102365.97;6174881;22;97132;-50
2023/03/02 09:50:34;;;;;;;9.87;5.90;;;;;;;4.64;61.58;102365.53;6174966;22;96950;-49
2023/03/02 09:53:23;;;;;;;6.37;5.07;;;;;;;4.60;60.87;102367.53;6174486;22;97322;-50
2023/03/02 09:55:59;;;;;;;8.63;5.47;;;;;;;4.69;60.73;102364.31;6175608;22;96958;-50
2023/03/02 09:58:30;;;;;;;8.23;5.47;;;;;;;4.74;60.61;102370.06;6174497;22;97102;-50
2023/03/02 10:00:59;;;;;;;8.87;5.50;;;;;;;4.84;60.46;102363.72;6175402;22;96915;-50
2023/03/02 10:03:37;;;;;;;7.60;4.93;;;;;;;4.97;60.92;102369.38;6174339;22;97451;-50
2023/03/02 10:06:03;;;;;;;6.20;4.83;;;;;;;5.01;60.29;102364.63;6174163;22;97190;-49
2023/03/02 10:08:32;;;;;;;8.20;6.33;;;;;;;5.00;60.51;102357.66;6174170;22;96575;-50
2023/03/02 10:11:15;;;;;;;7.50;4.73;;;;;;;5.04;60.94;102364.59;6174132;22;96731;-50
2023/03/02 10:13:48;;;;;;;8.17;5.70;;;;;;;5.14;60.93;102360.16;6174735;22;96501;-50
2023/03/02 10:16:31;;;;;;;9.43;5.33;;;;;;;5.23;60.38;102363.13;6174921;22;97132;-49
2023/03/02 10:19:16;;;;;;;7.20;4.93;;;;;;;5.31;60.81;102350.91;6174475;22;97261;-50
2023/03/02 10:21:47;;;;;;;7.87;5.30;;;;;;;5.45;60.55;102345.25;6175299;22;96959;-50
2023/03/02 10:24:16;;;;;;;7.53;5.30;;;;;;;5.54;60.33;102347.44;6174771;22;97401;-50
2023/03/02 10:26:45;;;;;;;7.47;5.60;;;;;;;5.61;59.98;102345.38;6174977;22;97114;-49
2023/03/02 10:29:22;;;;;;;6.07;5.00;;;;;;;5.67;60.32;102348.38;6175185;22;96976;-49
2023/03/02 10:31:54;;;;;;;7.60;5.33;;;;;;;5.70;59.94;102342.84;6174554;22;97138;-50
2023/03/02 10:34:26;;;;;;;5.57;4.60;;;;;;;5.75;59.78;102344.31;6174018;22;97318;-50
2023/03/02 10:36:52;;;;;;;7.77;5.83;;;;;;;5.76;59.44;102343.94;6174051;22;97109;-50
2023/03/02 10:39:17;;;;;;;8.43;6.07;;;;;;;5.69;59.48;102354.97;6174073;22;97064;-50
2023/03/02 10:42:01;;;;;;;8.53;6.10;;;;;;;5.66;59.90;102353.06;6175079;22;96781;-50
2023/03/02 10:44:38;;;;;;;7.67;5.40;;;;;;;5.74;59.92;102351.78;6174648;22;97503;-50
2023/03/02 10:47:06;;;;;;;8.00;5.03;;;;;;;5.81;60.14;102348.13;6174667;22;97540;-50
2023/03/02 10:49:33;;;;;;;8.60;5.90;;;;;;;5.82;59.94;102353.19;6174997;22;96519;-50
2023/03/02 10:52:14;;;;;;;7.07;5.17;;;;;;;5.79;60.33;102348.53;6175246;22;96994;-49
2023/03/02 10:54:40;;;;;;;8.10;5.40;;;;;;;5.85;59.90;102346.13;6174068;22;96926;-50
2023/03/02 10:57:36;;;;;;;9.63;6.13;;;;;;;5.89;60.07;102347.63;6173939;22;97628;-49
2023/03/02 11:00:25;;;;;;;19.50;12.17;;;;;;;5.97;60.26;102343.56;6174607;22;97152;-50
2023/03/02 11:03:00;;;;;;;15.97;9.30;;;;;;;5.90;59.63;102340.94;6155063;22;97209;-50
2023/03/02 11:05:29;;;;;;;14.90;9.00;;;;;;;5.85;59.14;102346.88;6143966;22;97488;-50
2023/03/02 11:08:00;;;;;;;11.50;7.67;;;;;;;5.80;60.11;102346.59;6143693;22;98246;-50
2023/03/02 11:10:29;;;;;;;9.97;6.37;;;;;;;5.84;60.01;102348.09;6145019;22;97273;-49
2023/03/02 11:12:55;;;;;;;8.13;6.00;;;;;;;5.77;59.73;102345.44;6144044;22;97152;-50
2023/03/02 11:15:23;;;;;;;10.40;6.00;;;;;;;5.82;59.96;102344.97;6144788;22;96953;-49
2023/03/02 11:18:04;;;;;;;7.87;5.47;;;;;;;5.94;60.30;102335.44;6144226;22;97049;-49
2023/03/02 11:20:34;;;;;;;8.07;5.60;;;;;;;6.01;59.91;102330.59;6144227;22;96515;-50
2023/03/02 11:23:37;;;;;;;8.07;5.80;;;;;;;6.13;60.66;102328.44;6144432;22;96743;-50
2023/03/02 11:26:16;;;;;;;9.27;5.87;;;;;;;6.13;60.09;102326.47;6143099;22;97367;-49
2023/03/02 11:28:59;;;;;;;9.23;6.30;;;;;;;6.12;60.55;102319.47;6115812;22;97410;-50
2023/03/02 11:31:39;;;;;;;9.77;6.90;;;;;;;6.15;60.35;102317.84;6144568;22;96946;-50
2023/03/02 11:34:26;;;;;;;8.70;6.10;;;;;;;6.23;60.64;102320.00;6144256;22;96945;-50
2023/03/02 11:37:03;;;;;;;10.20;5.83;;;;;;;6.30;60.12;102319.88;6143686;22;96656;-50
2023/03/02 11:39:47;;;;;;;6.80;5.47;;;;;;;6.42;60.23;102315.75;6144386;22;97492;-50
2023/03/02 11:42:29;;;;;;;9.57;6.87;;;;;;;6.37;59.84;102319.75;6144279;22;97037;-50